createdAt,value
2023-01-04T00:00:53.010Z,89.03
2023-01-04T00:03:20.522Z,89.02
2023-01-04T00:05:47.967Z,89.14
2023-01-04T00:08:15.234Z,89.72
2023-01-04T00:10:42.492Z,90.31
2023-01-04T00:13:09.763Z,90.82
2023-01-04T00:15:37.114Z,90.99
2023-01-04T00:18:04.631Z,91.23
2023-01-04T00:20:31.858Z,91.42
2023-01-04T00:22:59.187Z,91.38
2023-01-04T00:25:26.512Z,91.34
2023-01-04T00:27:53.869Z,91.07
2023-01-04T00:30:21.143Z,90.71
2023-01-04T00:32:48.503Z,90.51
2023-01-04T00:35:43.726Z,90.64
2023-01-04T00:38:03.259Z,91.09
2023-01-04T00:40:30.507Z,91.23
2023-01-04T00:42:57.834Z,91.25
2023-01-04T00:45:25.082Z,91.04
2023-01-04T00:47:52.344Z,91.09
2023-01-04T00:50:19.794Z,91.38
2023-01-04T00:52:49.858Z,91.13
2023-01-04T00:55:17.155Z,90.88
2023-01-04T00:57:44.430Z,90.80
2023-01-04T01:00:12.599Z,90.68
2023-01-04T01:02:40.109Z,90.72
2023-01-04T01:05:08.159Z,90.63
2023-01-04T01:07:35.485Z,90.34
2023-01-04T01:10:02.836Z,89.79
2023-01-04T01:12:30.134Z,90.00
2023-01-04T01:15:00.586Z,90.49
2023-01-04T01:17:28.190Z,90.43
2023-01-04T01:19:55.452Z,90.35
2023-01-04T01:22:23.003Z,89.84
2023-01-04T01:24:50.307Z,89.14
2023-01-04T01:27:18.230Z,88.87
2023-01-04T01:29:45.531Z,88.66
2023-01-04T01:32:12.828Z,88.57
2023-01-04T01:34:40.110Z,89.07
2023-01-04T01:37:07.417Z,88.92
2023-01-04T01:39:34.706Z,89.12
2023-01-04T01:42:02.049Z,89.57
2023-01-04T01:44:45.378Z,89.04
2023-01-04T01:47:21.827Z,89.11
2023-01-04T01:49:51.620Z,89.32
2023-01-04T01:52:21.915Z,88.84
2023-01-04T01:55:00.462Z,88.94
2023-01-04T01:57:29.672Z,89.30
2023-01-04T01:59:58.187Z,89.40
2023-01-04T02:02:25.840Z,89.22
2023-01-04T02:04:54.549Z,88.93
2023-01-04T02:07:23.426Z,88.49
2023-01-04T02:09:51.109Z,88.40
2023-01-04T02:12:18.402Z,88.52
2023-01-04T02:14:47.085Z,88.24
2023-01-04T02:17:16.732Z,88.78
2023-01-04T02:19:47.101Z,89.81
2023-01-04T02:22:43.687Z,90.39
2023-01-04T02:25:10.966Z,90.57
2023-01-04T02:27:59.798Z,90.64
2023-01-04T02:30:33.223Z,90.18
2023-01-04T02:33:00.493Z,89.48
2023-01-04T02:36:05.416Z,89.39
2023-01-04T02:38:57.721Z,89.66
2023-01-04T02:41:33.173Z,90.05
2023-01-04T02:44:27.630Z,90.34
2023-01-04T02:46:59.309Z,90.15
2023-01-04T02:49:45.118Z,89.80
2023-01-04T02:52:12.399Z,89.11
2023-01-04T02:54:39.683Z,89.21
2023-01-04T02:57:44.706Z,88.94
2023-01-04T03:00:21.222Z,89.28
2023-01-04T03:03:20.475Z,89.15
2023-01-04T03:06:18.277Z,89.85
2023-01-04T03:09:13.117Z,89.39
2023-01-04T03:12:04.175Z,88.84
2023-01-04T03:14:35.440Z,88.47
2023-01-04T03:17:04.982Z,88.45
2023-01-04T03:19:50.681Z,88.93
2023-01-04T03:23:04.781Z,89.39
2023-01-04T03:25:54.198Z,89.11
2023-01-04T03:28:40.501Z,88.52
2023-01-04T03:31:32.876Z,88.37
2023-01-04T03:34:18.903Z,87.98
2023-01-04T03:36:50.149Z,88.91
2023-01-04T03:39:50.769Z,89.41
2023-01-04T03:42:41.250Z,89.86
2023-01-04T03:45:35.288Z,89.64
2023-01-04T03:48:31.715Z,89.48
2023-01-04T03:51:17.283Z,89.04
2023-01-04T03:53:48.177Z,88.71
2023-01-04T03:56:15.693Z,88.69
2023-01-04T03:58:42.942Z,88.65
2023-01-04T04:01:10.346Z,88.33
2023-01-04T04:03:56.308Z,88.33
2023-01-04T04:06:42.351Z,88.24
2023-01-04T04:09:09.601Z,88.36
2023-01-04T04:11:36.904Z,88.48
2023-01-04T04:14:04.185Z,88.88
2023-01-04T04:16:31.603Z,89.22
2023-01-04T04:19:03.128Z,89.23
2023-01-04T04:21:33.889Z,89.35
2023-01-04T04:24:01.187Z,89.59
2023-01-04T04:26:28.520Z,89.91
2023-01-04T04:28:55.825Z,89.56
2023-01-04T04:31:23.155Z,89.54
2023-01-04T04:33:50.515Z,89.38
2023-01-04T04:36:17.811Z,89.17
2023-01-04T04:38:45.095Z,89.37
2023-01-04T04:41:32.098Z,89.64
2023-01-04T04:43:59.425Z,89.22
2023-01-04T04:46:26.796Z,89.17
2023-01-04T04:48:54.154Z,89.38
2023-01-04T04:51:21.428Z,89.48
2023-01-04T04:53:49.503Z,89.32
2023-01-04T04:56:16.814Z,89.36
2023-01-04T04:58:44.154Z,89.23
2023-01-04T05:01:11.497Z,88.93
2023-01-04T05:03:38.980Z,89.16
2023-01-04T05:06:06.408Z,88.92
2023-01-04T05:08:33.720Z,88.77
2023-01-04T05:11:02.421Z,88.71
2023-01-04T05:13:29.753Z,88.87
2023-01-04T05:15:57.088Z,88.76
2023-01-04T05:18:24.388Z,88.85
2023-01-04T05:20:51.674Z,88.67
2023-01-04T05:23:19.919Z,88.77
2023-01-04T05:25:53.348Z,88.50
2023-01-04T05:28:20.678Z,88.82
2023-01-04T05:30:53.797Z,89.05
2023-01-04T05:33:23.492Z,88.80
2023-01-04T05:35:51.351Z,88.76
2023-01-04T05:38:18.914Z,88.94
2023-01-04T05:40:46.431Z,88.77
2023-01-04T05:43:16.791Z,88.63
2023-01-04T05:45:44.383Z,88.94
2023-01-04T05:48:11.672Z,88.87
2023-01-04T05:50:38.992Z,88.89
2023-01-04T05:53:10.604Z,88.68
2023-01-04T05:55:37.935Z,88.98
2023-01-04T05:58:05.261Z,89.19
2023-01-04T06:00:32.596Z,88.69
2023-01-04T06:03:00.005Z,88.17
2023-01-04T06:05:27.380Z,88.20
2023-01-04T06:07:54.740Z,88.41
2023-01-04T06:10:22.082Z,88.38
2023-01-04T06:12:49.401Z,88.07
2023-01-04T06:15:16.824Z,87.72
2023-01-04T06:17:44.185Z,88.09
2023-01-04T06:20:11.786Z,87.85
2023-01-04T06:22:40.812Z,87.87
2023-01-04T06:25:09.048Z,87.49
2023-01-04T06:27:36.508Z,87.62
2023-01-04T06:30:04.523Z,88.96
2023-01-04T06:32:31.839Z,89.74
2023-01-04T06:34:59.193Z,89.88
2023-01-04T06:37:26.546Z,89.83
2023-01-04T06:39:53.834Z,89.47
2023-01-04T06:42:39.508Z,89.63
2023-01-04T06:45:07.166Z,89.09
2023-01-04T06:47:34.507Z,88.95
2023-01-04T06:50:01.960Z,89.00
2023-01-04T06:52:29.266Z,88.97
2023-01-04T06:54:56.654Z,88.88
2023-01-04T06:57:24.282Z,88.83
2023-01-04T06:59:51.648Z,88.56
2023-01-04T07:02:19.033Z,88.28
2023-01-04T07:04:46.547Z,88.27
2023-01-04T07:07:13.879Z,88.09
2023-01-04T07:09:41.249Z,88.04
2023-01-04T07:12:08.512Z,87.81
2023-01-04T07:14:35.838Z,87.84
2023-01-04T07:17:03.181Z,87.87
2023-01-04T07:19:30.510Z,88.29
2023-01-04T07:21:58.921Z,87.91
2023-01-04T07:24:30.371Z,87.78
2023-01-04T07:26:59.768Z,88.00
2023-01-04T07:29:27.209Z,88.05
2023-01-04T07:31:54.569Z,87.95
2023-01-04T07:34:25.280Z,88.19
2023-01-04T07:36:52.669Z,87.97
2023-01-04T07:39:19.998Z,88.12
2023-01-04T07:41:47.913Z,87.87
2023-01-04T07:44:18.615Z,87.96
2023-01-04T07:46:45.999Z,87.73
2023-01-04T07:49:17.774Z,87.69
2023-01-04T07:51:46.429Z,87.52
2023-01-04T07:54:14.451Z,87.22
2023-01-04T07:56:41.777Z,87.27
2023-01-04T07:59:09.625Z,87.51
2023-01-04T08:01:38.639Z,87.53
2023-01-04T08:04:07.011Z,87.14
2023-01-04T08:06:34.858Z,86.90
2023-01-04T08:09:02.714Z,86.85
2023-01-04T08:11:30.006Z,87.49
2023-01-04T08:13:57.319Z,88.06
2023-01-04T08:16:25.498Z,88.38
2023-01-04T08:18:53.627Z,88.24
2023-01-04T08:21:21.020Z,88.05
2023-01-04T08:23:48.354Z,88.01
2023-01-04T08:26:15.872Z,87.81
2023-01-04T08:28:43.325Z,87.99
2023-01-04T08:31:13.590Z,87.81
2023-01-04T08:33:41.006Z,88.08
2023-01-04T08:36:11.203Z,88.03
2023-01-04T08:41:56.063Z,87.85
2023-01-04T08:44:13.137Z,88.06
2023-01-04T08:46:40.521Z,87.92
2023-01-04T08:49:08.119Z,87.69
2023-01-04T08:51:35.447Z,87.24
2023-01-04T08:54:02.818Z,87.23
2023-01-04T08:56:30.144Z,87.33
2023-01-04T08:58:57.444Z,87.27
2023-01-04T09:01:24.886Z,87.24
2023-01-04T09:03:52.388Z,87.28
2023-01-04T09:06:19.741Z,87.05
2023-01-04T09:08:47.013Z,86.99
2023-01-04T09:11:18.252Z,86.96
2023-01-04T09:13:45.688Z,86.69
2023-01-04T09:16:14.828Z,86.64
2023-01-04T09:18:42.407Z,86.83
2023-01-04T09:21:20.191Z,86.63
2023-01-04T09:23:47.619Z,86.26
2023-01-04T09:26:21.750Z,85.93
2023-01-04T09:28:52.814Z,85.82
2023-01-04T09:31:22.279Z,86.16
2023-01-04T09:36:36.980Z,85.73
2023-01-04T09:39:04.577Z,85.10
2023-01-04T09:41:37.870Z,84.54
2023-01-04T09:45:12.235Z,84.05
2023-01-04T09:47:41.025Z,83.87
2023-01-04T09:50:22.297Z,84.19
2023-01-04T09:53:01.221Z,83.93
2023-01-04T09:55:37.462Z,83.88
2023-01-04T09:58:27.529Z,83.87
2023-01-04T10:01:05.079Z,83.77
2023-01-04T10:03:35.546Z,82.44
2023-01-04T10:06:03.236Z,82.52
2023-01-04T10:08:31.570Z,81.79
2023-01-04T10:11:16.503Z,81.77
2023-01-04T10:14:28.082Z,80.88
2023-01-04T10:17:44.606Z,80.22
2023-01-04T10:23:12.920Z,80.20
2023-01-04T10:25:52.900Z,80.27
2023-01-04T10:28:29.229Z,79.75
2023-01-04T10:31:39.573Z,80.25
2023-01-04T10:34:06.117Z,80.27
2023-01-04T10:36:33.530Z,79.98
2023-01-04T10:39:04.129Z,79.15
2023-01-04T10:41:37.263Z,79.52
2023-01-04T10:44:15.834Z,79.34
2023-01-04T10:47:13.464Z,79.20
2023-01-04T10:49:55.668Z,78.98
2023-01-04T10:52:30.068Z,78.23
2023-01-04T10:55:22.742Z,78.67
2023-01-04T10:57:52.782Z,78.59
2023-01-04T11:00:31.260Z,78.60
2023-01-04T11:03:09.828Z,78.32
2023-01-04T11:05:47.973Z,78.31
2023-01-04T11:08:24.243Z,78.54
2023-01-04T11:10:56.494Z,78.00
2023-01-04T11:13:24.173Z,77.25
2023-01-04T11:15:52.142Z,77.21
2023-01-04T11:18:19.509Z,76.82
2023-01-04T11:20:46.896Z,76.43
2023-01-04T11:23:18.970Z,76.52
2023-01-04T11:26:09.126Z,76.55
2023-01-04T11:28:52.142Z,76.27
2023-01-04T11:31:34.786Z,75.87
2023-01-04T11:34:03.054Z,75.99
2023-01-04T11:36:38.519Z,75.81
2023-01-04T11:39:11.064Z,74.90
2023-01-04T11:41:38.359Z,74.81
2023-01-04T11:44:06.890Z,74.95
2023-01-04T11:46:34.612Z,74.34
2023-01-04T11:49:01.901Z,74.07
2023-01-04T11:51:29.719Z,73.83
2023-01-04T11:54:05.131Z,74.20
2023-01-04T11:56:36.514Z,73.71
2023-01-04T11:59:20.634Z,73.52
2023-01-04T12:01:50.235Z,74.26
2023-01-04T12:04:23.331Z,74.56
2023-01-04T12:06:56.900Z,74.30
2023-01-04T12:09:24.241Z,73.22
2023-01-04T12:11:56.182Z,71.70
2023-01-04T12:14:36.074Z,70.68
2023-01-04T12:17:20.898Z,70.26
2023-01-04T12:19:49.102Z,71.16
2023-01-04T12:22:37.508Z,71.35
2023-01-04T12:25:08.183Z,71.86
2023-01-04T12:27:36.706Z,71.09
2023-01-04T12:30:08.304Z,70.28
2023-01-04T12:32:35.691Z,70.88
2023-01-04T12:35:02.996Z,70.62
2023-01-04T12:37:46.092Z,71.19
2023-01-04T12:40:44.250Z,71.14
2023-01-04T12:43:17.533Z,71.13
2023-01-04T12:45:46.118Z,71.51
2023-01-04T12:48:52.105Z,71.02
2023-01-04T12:51:37.290Z,71.12
2023-01-04T12:54:22.326Z,70.40
2023-01-04T12:57:21.150Z,71.10
2023-01-04T13:00:01.655Z,70.52
2023-01-04T13:02:35.930Z,70.16
2023-01-04T13:08:08.939Z,70.85
2023-01-04T13:10:36.367Z,70.52
2023-01-04T13:13:07.448Z,70.78
2023-01-04T13:15:49.859Z,70.94
2023-01-04T13:18:40.877Z,71.23
2023-01-04T13:21:14.159Z,71.30
2023-01-04T13:23:52.964Z,71.62
2023-01-04T13:26:39.691Z,71.67
2023-01-04T13:29:22.228Z,71.58
2023-01-04T13:31:55.356Z,71.75
2023-01-04T13:34:35.677Z,72.01
2023-01-04T13:37:19.051Z,72.21
2023-01-04T13:39:47.900Z,72.37
2023-01-04T13:42:36.669Z,72.05
2023-01-04T13:45:21.932Z,72.50
2023-01-04T13:47:50.999Z,72.76
2023-01-04T13:50:32.719Z,72.65
2023-01-04T13:53:06.854Z,72.86
2023-01-04T13:55:37.122Z,72.92
2023-01-04T13:58:17.193Z,73.21
2023-01-04T14:00:58.439Z,73.43
2023-01-04T14:03:46.725Z,73.47
2023-01-04T14:06:24.317Z,73.75
2023-01-04T14:09:09.946Z,73.84
2023-01-04T14:14:56.032Z,74.67
2023-01-04T14:17:35.419Z,74.71
2023-01-04T14:20:05.187Z,74.76
2023-01-04T14:22:36.606Z,74.93
2023-01-04T14:25:35.961Z,75.12
2023-01-04T14:28:30.560Z,75.37
2023-01-04T14:31:00.977Z,75.40
2023-01-04T14:33:45.079Z,75.71
2023-01-04T14:36:14.981Z,75.84
2023-01-04T14:38:47.377Z,76.02
2023-01-04T14:41:35.160Z,76.40
2023-01-04T14:44:15.353Z,76.70
2023-01-04T14:46:48.579Z,76.53
2023-01-04T14:49:16.274Z,76.87
2023-01-04T14:51:48.165Z,77.02
2023-01-04T14:54:22.169Z,77.15
2023-01-04T14:56:52.485Z,77.79
2023-01-04T14:59:19.873Z,77.99
2023-01-04T15:01:47.281Z,78.06
2023-01-04T15:04:14.764Z,78.20
2023-01-04T15:06:56.343Z,78.36
2023-01-04T15:09:23.705Z,78.65
2023-01-04T15:11:51.060Z,78.97
2023-01-04T15:14:18.569Z,79.08
2023-01-04T15:16:46.040Z,79.35
2023-01-04T15:19:13.427Z,79.56
2023-01-04T15:21:41.728Z,79.55
2023-01-04T15:24:10.114Z,79.90
2023-01-04T15:26:38.729Z,79.87
2023-01-04T15:29:06.983Z,79.70
2023-01-04T15:31:38.918Z,79.95
2023-01-04T15:34:07.232Z,80.14
2023-01-04T15:36:38.626Z,80.29
2023-01-04T15:39:07.247Z,80.22
2023-01-04T15:41:53.159Z,80.35
2023-01-04T15:44:20.540Z,80.46
2023-01-04T15:46:47.965Z,80.11
2023-01-04T15:49:17.792Z,80.39
2023-01-04T15:51:46.149Z,80.40
2023-01-04T15:54:13.736Z,80.26
2023-01-04T15:56:41.100Z,80.53
2023-01-04T15:59:08.455Z,80.26
2023-01-04T16:01:36.259Z,80.27
2023-01-04T16:04:06.184Z,80.45
2023-01-04T16:06:33.506Z,80.59
2023-01-04T16:09:02.082Z,80.76
2023-01-04T16:11:29.502Z,81.03
2023-01-04T16:13:56.934Z,81.04
2023-01-04T16:16:25.346Z,80.99
2023-01-04T16:18:53.579Z,81.42
2023-01-04T16:21:22.583Z,81.64
2023-01-04T16:24:03.834Z,81.49
2023-01-04T16:26:32.749Z,81.43
2023-01-04T16:29:00.904Z,81.18
2023-01-04T16:31:33.378Z,81.21
2023-01-04T16:34:00.799Z,81.10
2023-01-04T16:36:28.278Z,81.10
2023-01-04T16:38:55.646Z,81.26
2023-01-04T16:41:23.298Z,81.31
2023-01-04T16:43:55.543Z,81.32
2023-01-04T16:46:26.070Z,81.09
2023-01-04T16:48:55.015Z,81.07
2023-01-04T16:51:23.710Z,81.24
2023-01-04T16:53:51.316Z,81.52
2023-01-04T16:56:20.019Z,81.54
2023-01-04T16:58:48.417Z,81.44
2023-01-04T17:01:20.643Z,81.37
2023-01-04T17:03:48.385Z,81.53
2023-01-04T17:06:17.965Z,81.65
2023-01-04T17:08:46.253Z,81.50
2023-01-04T17:14:11.791Z,81.27
2023-01-04T17:16:39.300Z,81.42
2023-01-04T17:19:06.829Z,81.86
2023-01-04T17:21:35.339Z,81.87
2023-01-04T17:24:03.158Z,82.02
2023-01-04T17:26:31.710Z,82.04
2023-01-04T17:28:59.949Z,82.06
2023-01-04T17:31:32.115Z,82.38
2023-01-04T17:33:59.705Z,81.87
2023-01-04T17:36:27.214Z,81.86
2023-01-04T17:38:54.677Z,81.86
2023-01-04T17:41:23.629Z,81.91
2023-01-04T17:43:52.566Z,81.99
2023-01-04T17:46:23.597Z,81.95
2023-01-04T17:51:41.616Z,81.81
2023-01-04T17:54:11.117Z,81.82
2023-01-04T17:56:38.484Z,81.63
2023-01-04T17:59:08.806Z,81.59
2023-01-04T18:01:36.303Z,81.67
2023-01-04T18:04:04.091Z,81.79
2023-01-04T18:06:33.497Z,81.77
2023-01-04T18:09:01.497Z,81.59
2023-01-04T18:11:28.866Z,81.49
2023-01-04T18:13:56.146Z,81.32
2023-01-04T18:16:27.874Z,81.67
2023-01-04T18:18:56.491Z,82.23
2023-01-04T18:21:31.024Z,82.42
2023-01-04T18:27:19.800Z,82.64
2023-01-04T18:29:35.154Z,83.08
2023-01-04T18:32:02.529Z,83.19
2023-01-04T18:34:29.927Z,83.21
2023-01-04T18:36:57.232Z,82.92
2023-01-04T18:39:24.724Z,82.87
2023-01-04T18:41:52.080Z,82.96
2023-01-04T18:44:39.684Z,82.98
2023-01-04T18:47:09.203Z,82.82
2023-01-04T18:49:36.553Z,82.77
2023-01-04T18:52:04.053Z,82.63
2023-01-04T18:54:31.357Z,82.65
2023-01-04T18:57:01.037Z,82.81
2023-01-04T18:59:29.740Z,82.80
2023-01-04T19:02:04.099Z,82.97
2023-01-04T19:04:32.415Z,82.87
2023-01-04T19:06:59.915Z,82.89
2023-01-04T19:09:27.333Z,82.95
2023-01-04T19:11:54.683Z,82.80
2023-01-04T19:14:22.135Z,82.83
2023-01-04T19:16:49.484Z,83.03
2023-01-04T19:19:16.869Z,83.43
2023-01-04T19:21:44.191Z,83.43
2023-01-04T19:24:11.520Z,83.30
2023-01-04T19:26:39.186Z,83.31
2023-01-04T19:29:08.156Z,83.65
2023-01-04T19:31:35.695Z,83.39
2023-01-04T19:34:03.053Z,83.45
2023-01-04T19:36:30.379Z,83.82
2023-01-04T19:38:57.771Z,83.92
2023-01-04T19:41:33.470Z,84.25
2023-01-04T19:44:02.449Z,84.32
2023-01-04T19:46:30.574Z,84.32
2023-01-04T19:48:57.854Z,84.24
2023-01-04T19:51:25.277Z,84.07
2023-01-04T19:53:52.622Z,84.39
2023-01-04T19:56:19.984Z,84.43
2023-01-04T19:58:47.350Z,84.45
2023-01-04T20:01:19.562Z,84.52
2023-01-04T20:03:47.170Z,84.57
2023-01-04T20:06:14.747Z,84.56
2023-01-04T20:08:42.630Z,84.54
2023-01-04T20:11:10.196Z,84.53
2023-01-04T20:13:38.864Z,84.50
2023-01-04T20:16:06.670Z,84.54
2023-01-04T20:18:34.201Z,84.66
2023-01-04T20:21:01.656Z,84.36
2023-01-04T20:23:28.941Z,84.52
2023-01-04T20:25:56.230Z,84.76
2023-01-04T20:28:24.445Z,84.84
2023-01-04T20:31:02.554Z,84.82
2023-01-04T20:33:30.649Z,84.93
2023-01-04T20:35:57.951Z,84.72
2023-01-04T20:38:25.249Z,84.67
2023-01-04T20:40:52.524Z,84.71
2023-01-04T20:43:34.803Z,84.79
2023-01-04T20:46:03.000Z,84.65
2023-01-04T20:48:30.936Z,84.85
2023-01-04T20:50:58.229Z,84.81
2023-01-04T20:53:25.587Z,84.88
2023-01-04T20:55:52.884Z,84.90
2023-01-04T20:58:20.223Z,85.16
2023-01-04T21:00:47.884Z,85.16
2023-01-04T21:03:15.509Z,85.13
2023-01-04T21:05:44.163Z,85.32
2023-01-04T21:08:12.666Z,85.43
2023-01-04T21:10:41.237Z,85.68
2023-01-04T21:13:08.658Z,85.83
2023-01-04T21:15:37.283Z,85.66
2023-01-04T21:18:05.754Z,85.47
2023-01-04T21:20:33.194Z,85.35
2023-01-04T21:23:00.527Z,85.57
2023-01-04T21:25:27.849Z,85.76
2023-01-04T21:27:55.241Z,85.88
2023-01-04T21:30:22.554Z,85.87
2023-01-04T21:32:50.141Z,86.11
2023-01-04T21:35:17.488Z,86.18
2023-01-04T21:37:44.900Z,86.10
2023-01-04T21:40:12.611Z,86.36
2023-01-04T21:42:39.944Z,86.22
2023-01-04T21:45:07.822Z,86.27
2023-01-04T21:47:35.127Z,86.41
2023-01-04T21:50:02.382Z,86.55
2023-01-04T21:52:29.719Z,86.55
2023-01-04T21:54:57.042Z,86.42
2023-01-04T21:57:24.351Z,86.32
2023-01-04T21:59:52.101Z,86.36
2023-01-04T22:02:19.824Z,86.28
2023-01-04T22:04:47.878Z,86.18
2023-01-04T22:07:15.285Z,86.13
2023-01-04T22:09:42.614Z,86.07
2023-01-04T22:12:09.923Z,86.06
2023-01-04T22:14:37.232Z,86.05
2023-01-04T22:17:04.509Z,85.90
2023-01-04T22:19:31.825Z,85.82
2023-01-04T22:21:59.158Z,85.92
2023-01-04T22:24:26.449Z,86.26
2023-01-04T22:26:53.781Z,86.06
2023-01-04T22:29:21.223Z,86.40
2023-01-04T22:31:49.028Z,86.18
2023-01-04T22:34:17.056Z,86.40
2023-01-04T22:36:44.455Z,86.47
2023-01-04T22:39:11.816Z,86.40
2023-01-04T22:41:41.178Z,86.70
2023-01-04T22:44:08.445Z,86.70
2023-01-04T22:46:36.373Z,86.68
2023-01-04T22:49:03.862Z,86.62
2023-01-04T22:51:31.722Z,86.38
2023-01-04T22:54:06.045Z,86.64
2023-01-04T22:56:33.387Z,86.53
2023-01-04T22:59:00.688Z,86.65
2023-01-04T23:01:29.811Z,86.66
2023-01-04T23:03:58.048Z,86.47
2023-01-04T23:06:25.841Z,86.54
2023-01-04T23:08:59.658Z,86.67
2023-01-04T23:11:27.643Z,86.56
2023-01-04T23:13:55.393Z,86.41
2023-01-04T23:16:27.933Z,86.39
2023-01-04T23:18:57.405Z,86.20
2023-01-04T23:21:24.668Z,86.25
2023-01-04T23:23:51.981Z,86.25
2023-01-04T23:26:20.988Z,86.23
2023-01-04T23:28:48.445Z,86.31
2023-01-04T23:31:17.191Z,86.43
2023-01-04T23:33:44.667Z,86.30
2023-01-04T23:36:13.031Z,86.39
2023-01-04T23:38:40.650Z,86.41
2023-01-04T23:41:08.125Z,86.50
2023-01-04T23:43:36.694Z,86.26
2023-01-04T23:46:08.236Z,86.38
2023-01-04T23:48:35.580Z,86.38
2023-01-04T23:51:02.905Z,86.51
2023-01-04T23:53:30.223Z,86.44
2023-01-04T23:56:05.912Z,86.51
2023-01-04T23:58:33.631Z,86.50
